createdAt,value
2017-10-19T00:02:10.551Z,9.20
2017-10-19T00:04:38.876Z,9.30
2017-10-19T00:07:07.198Z,9.30
2017-10-19T00:09:36.296Z,9.40
2017-10-19T00:12:06.134Z,9.40
2017-10-19T00:14:35.186Z,9.40
2017-10-19T00:17:03.472Z,9.30
2017-10-19T00:19:31.803Z,9.40
2017-10-19T00:22:00.086Z,9.40
2017-10-19T00:24:28.378Z,9.40
2017-10-19T00:26:56.695Z,9.30
2017-10-19T00:29:25.748Z,9.40
2017-10-19T00:31:54.055Z,9.40
2017-10-19T00:34:22.339Z,9.30
2017-10-19T00:36:50.679Z,9.30
2017-10-19T00:39:19.737Z,9.30
2017-10-19T00:41:48.058Z,9.20
2017-10-19T00:44:17.117Z,9.40
2017-10-19T00:46:45.444Z,9.40
2017-10-19T00:49:13.732Z,9.40
2017-10-19T00:51:42.059Z,9.40
2017-10-19T00:54:10.651Z,9.30
2017-10-19T00:56:38.976Z,9.20
2017-10-19T00:59:07.320Z,9.20
2017-10-19T01:01:36.366Z,9.40
2017-10-19T01:04:04.687Z,9.40
2017-10-19T01:06:32.974Z,9.40
2017-10-19T01:09:01.297Z,9.40
2017-10-19T01:11:30.392Z,9.50
2017-10-19T01:13:59.482Z,9.50
2017-10-19T01:16:27.790Z,9.50
2017-10-19T01:18:57.414Z,9.70
2017-10-19T01:21:26.477Z,9.80
2017-10-19T01:23:54.811Z,9.80
2017-10-19T01:26:23.867Z,9.50
2017-10-19T01:28:52.192Z,9.50
2017-10-19T01:31:20.589Z,9.60
2017-10-19T01:33:49.675Z,9.70
2017-10-19T01:36:18.008Z,9.70
2017-10-19T01:38:47.067Z,9.70
2017-10-19T01:41:15.392Z,9.70
2017-10-19T01:43:44.456Z,9.70
2017-10-19T01:46:12.804Z,9.70
2017-10-19T01:48:41.855Z,9.60
2017-10-19T01:51:10.156Z,9.60
2017-10-19T01:53:38.480Z,9.60
2017-10-19T01:56:07.544Z,9.60
2017-10-19T01:58:35.871Z,9.60
2017-10-19T02:01:04.962Z,9.80
2017-10-19T02:03:33.279Z,9.80
2017-10-19T02:06:02.361Z,9.70
2017-10-19T02:08:30.695Z,9.70
2017-10-19T02:10:58.987Z,9.70
2017-10-19T02:13:27.293Z,9.60
2017-10-19T02:15:55.618Z,9.60
2017-10-19T02:18:23.939Z,9.60
2017-10-19T02:20:53.031Z,9.40
2017-10-19T02:23:22.130Z,9.40
2017-10-19T02:25:50.521Z,9.40
2017-10-19T02:28:18.811Z,9.40
2017-10-19T02:30:47.135Z,9.40
2017-10-19T02:33:15.411Z,9.40
2017-10-19T02:35:44.505Z,9.30
2017-10-19T02:38:13.563Z,9.30
2017-10-19T02:40:41.882Z,9.30
2017-10-19T02:43:10.211Z,9.30
2017-10-19T02:45:39.280Z,9.30
2017-10-19T02:48:07.723Z,9.30
2017-10-19T02:50:36.017Z,9.40
2017-10-19T02:53:04.355Z,9.30
2017-10-19T02:55:34.159Z,9.20
2017-10-19T02:58:02.450Z,9.20
2017-10-19T03:00:30.779Z,9.20
2017-10-19T03:02:59.846Z,9.30
2017-10-19T03:05:28.171Z,9.30
2017-10-19T03:07:57.236Z,9.40
2017-10-19T03:10:25.525Z,9.40
2017-10-19T03:12:53.847Z,9.50
2017-10-19T03:15:23.684Z,9.40
2017-10-19T03:17:52.782Z,9.50
2017-10-19T03:20:22.624Z,9.50
2017-10-19T03:22:51.715Z,9.40
2017-10-19T03:25:21.559Z,9.30
2017-10-19T03:27:50.619Z,9.40
2017-10-19T03:30:18.947Z,9.40
2017-10-19T03:32:47.995Z,9.20
2017-10-19T03:35:16.356Z,9.20
2017-10-19T03:37:45.415Z,9.20
2017-10-19T03:40:13.736Z,9.20
2017-10-19T03:42:42.828Z,9.20
2017-10-19T03:45:11.117Z,9.10
2017-10-19T03:47:39.436Z,9.10
2017-10-19T03:50:08.572Z,9.00
2017-10-19T03:52:36.867Z,9.00
2017-10-19T03:55:05.193Z,9.00
2017-10-19T03:57:33.511Z,9.00
2017-10-19T04:00:02.602Z,9.00
2017-10-19T04:02:32.398Z,9.00
2017-10-19T04:05:00.719Z,9.00
2017-10-19T04:07:29.819Z,8.90
2017-10-19T04:09:58.096Z,8.90
2017-10-19T04:12:26.436Z,8.90
2017-10-19T04:14:55.503Z,8.70
2017-10-19T04:17:23.814Z,8.70
2017-10-19T04:19:52.879Z,8.70
2017-10-19T04:22:21.203Z,8.70
2017-10-19T04:24:50.279Z,8.70
2017-10-19T04:27:18.574Z,8.70
2017-10-19T04:29:46.895Z,8.80
2017-10-19T04:32:16.012Z,8.80
2017-10-19T04:34:45.068Z,8.70
2017-10-19T04:37:13.362Z,8.70
2017-10-19T04:39:41.683Z,8.60
2017-10-19T04:42:10.775Z,8.70
2017-10-19T04:44:39.060Z,8.70
2017-10-19T04:47:07.385Z,8.70
2017-10-19T04:49:36.461Z,8.60
2017-10-19T04:52:04.780Z,8.50
2017-10-19T04:54:33.883Z,8.60
2017-10-19T04:57:02.947Z,8.70
2017-10-19T04:59:31.244Z,8.60
2017-10-19T05:01:59.567Z,8.70
2017-10-19T05:04:28.622Z,8.70
2017-10-19T05:06:56.955Z,8.70
2017-10-19T05:09:26.773Z,8.80
2017-10-19T05:11:55.111Z,8.80
2017-10-19T05:14:23.453Z,8.60
2017-10-19T05:16:51.763Z,8.60
2017-10-19T05:19:20.832Z,8.70
2017-10-19T05:21:49.151Z,8.70
2017-10-19T05:24:18.999Z,8.60
2017-10-19T05:26:48.056Z,8.60
2017-10-19T05:29:16.339Z,8.60
2017-10-19T05:31:44.768Z,8.60
2017-10-19T05:34:14.600Z,8.60
2017-10-19T05:36:43.661Z,8.60
2017-10-19T05:39:11.992Z,8.60
2017-10-19T05:44:18.804Z,8.70
2017-10-19T05:46:48.599Z,8.60
2017-10-19T05:49:16.922Z,8.60
2017-10-19T05:51:46.030Z,8.50
2017-10-19T05:54:15.829Z,8.40
2017-10-19T05:56:44.126Z,8.40
2017-10-19T05:59:12.455Z,8.50
2017-10-19T06:01:41.517Z,8.60
2017-10-19T06:04:09.804Z,8.50
2017-10-19T06:06:38.127Z,8.40
2017-10-19T06:09:07.175Z,8.50
2017-10-19T06:11:35.511Z,8.50
2017-10-19T06:14:04.574Z,8.70
2017-10-19T06:16:32.886Z,8.60
2017-10-19T06:19:01.167Z,8.70
2017-10-19T06:21:29.505Z,8.60
2017-10-19T06:23:58.603Z,8.40
2017-10-19T06:26:27.827Z,8.40
2017-10-19T06:28:56.343Z,8.40
2017-10-19T06:31:24.631Z,8.40
2017-10-19T06:33:52.967Z,8.30
2017-10-19T06:36:21.242Z,8.50
2017-10-19T06:38:49.578Z,8.50
2017-10-19T06:41:18.672Z,8.50
2017-10-19T06:43:48.469Z,8.50
2017-10-19T06:46:16.796Z,8.50
2017-10-19T06:48:45.883Z,8.70
2017-10-19T06:51:15.723Z,8.80
2017-10-19T06:53:44.795Z,8.80
2017-10-19T06:56:13.088Z,8.80
2017-10-19T06:58:41.402Z,8.90
2017-10-19T07:01:11.195Z,9.00
2017-10-19T07:03:39.531Z,9.00
2017-10-19T07:06:08.597Z,9.10
2017-10-19T07:08:37.667Z,9.10
2017-10-19T07:11:05.993Z,9.10
2017-10-19T07:13:34.280Z,9.20
2017-10-19T07:16:02.688Z,9.20
2017-10-19T07:18:31.015Z,9.20
2017-10-19T07:21:00.067Z,9.30
2017-10-19T07:23:28.395Z,9.30
2017-10-19T07:25:57.614Z,9.60
2017-10-19T07:28:26.719Z,10.00
2017-10-19T07:30:55.840Z,10.10
2017-10-19T07:33:24.910Z,10.20
2017-10-19T07:35:53.287Z,10.20
2017-10-19T07:38:21.593Z,10.00
2017-10-19T07:40:49.934Z,10.20
2017-10-19T07:43:18.225Z,10.10
2017-10-19T07:45:46.519Z,10.10
2017-10-19T07:48:14.852Z,10.30
2017-10-19T07:50:43.184Z,10.20
2017-10-19T07:53:11.519Z,10.40
2017-10-19T07:55:40.082Z,10.50
2017-10-19T07:58:10.750Z,10.70
2017-10-19T08:00:39.084Z,10.70
2017-10-19T08:03:08.147Z,10.70
2017-10-19T08:05:36.483Z,10.70
2017-10-19T08:08:05.582Z,10.60
2017-10-19T08:10:34.648Z,10.60
2017-10-19T08:13:02.947Z,10.60
2017-10-19T08:15:31.280Z,10.70
2017-10-19T08:18:00.347Z,10.80
2017-10-19T08:20:28.689Z,10.70
2017-10-19T08:22:57.769Z,10.90
2017-10-19T08:25:26.103Z,10.90
2017-10-19T08:27:54.443Z,11.00
2017-10-19T08:30:24.281Z,11.20
2017-10-19T08:32:52.614Z,11.20
2017-10-19T08:35:20.945Z,11.10
2017-10-19T08:37:49.239Z,11.10
2017-10-19T08:40:19.079Z,11.20
2017-10-19T08:42:48.173Z,11.20
2017-10-19T08:45:16.514Z,11.20
2017-10-19T08:47:44.803Z,11.20
2017-10-19T08:50:13.106Z,11.10
2017-10-19T08:52:41.547Z,11.20
2017-10-19T08:55:10.668Z,11.40
2017-10-19T08:57:39.730Z,11.50
2017-10-19T09:00:08.083Z,11.40
2017-10-19T09:02:36.412Z,11.20
2017-10-19T09:05:04.747Z,11.20
2017-10-19T09:07:33.803Z,11.50
2017-10-19T09:10:02.281Z,11.50
2017-10-19T09:12:30.608Z,11.60
2017-10-19T09:14:58.930Z,11.70
2017-10-19T09:17:27.995Z,11.70
2017-10-19T09:19:56.318Z,11.70
2017-10-19T09:22:25.391Z,11.70
2017-10-19T09:24:53.747Z,11.60
2017-10-19T09:27:22.053Z,11.80
2017-10-19T09:29:50.374Z,11.90
2017-10-19T09:32:18.712Z,11.90
2017-10-19T09:34:47.812Z,11.80
2017-10-19T09:37:16.900Z,11.90
2017-10-19T09:39:46.725Z,11.80
2017-10-19T09:42:15.783Z,11.90
2017-10-19T09:44:44.120Z,11.80
2017-10-19T09:47:13.191Z,11.80
2017-10-19T09:49:41.504Z,11.90
2017-10-19T09:52:09.839Z,12.00
2017-10-19T09:54:38.145Z,12.10
2017-10-19T09:57:07.324Z,12.20
2017-10-19T09:59:37.188Z,12.20
2017-10-19T10:02:05.517Z,12.00
2017-10-19T10:04:35.335Z,11.90
2017-10-19T10:07:03.686Z,11.90
2017-10-19T10:09:31.974Z,11.90
2017-10-19T10:12:00.288Z,11.90
2017-10-19T10:14:28.631Z,11.90
2017-10-19T10:16:57.696Z,12.10
2017-10-19T10:19:26.032Z,12.10
2017-10-19T10:21:55.104Z,12.10
2017-10-19T10:24:24.946Z,12.10
2017-10-19T10:26:54.023Z,12.30
2017-10-19T10:29:22.364Z,12.30
2017-10-19T10:34:15.709Z,12.40
2017-10-19T10:36:44.047Z,12.40
2017-10-19T10:39:13.132Z,12.30
2017-10-19T10:41:42.971Z,12.50
2017-10-19T10:44:12.783Z,12.50
2017-10-19T10:46:41.107Z,12.50
2017-10-19T10:49:10.182Z,12.90
2017-10-19T10:51:40.019Z,12.90
2017-10-19T10:54:09.855Z,13.00
2017-10-19T10:56:38.928Z,13.20
2017-10-19T10:59:07.264Z,13.20
2017-10-19T11:01:36.339Z,13.30
2017-10-19T11:04:04.632Z,13.20
2017-10-19T11:06:32.976Z,13.60
2017-10-19T11:09:01.263Z,13.70
2017-10-19T11:14:01.995Z,13.50
2017-10-19T11:16:31.067Z,13.40
2017-10-19T11:18:59.415Z,13.40
2017-10-19T11:21:28.510Z,13.30
2017-10-19T11:23:57.611Z,13.30
2017-10-19T11:26:27.439Z,13.30
2017-10-19T11:28:56.552Z,13.40
2017-10-19T11:31:25.612Z,13.40
2017-10-19T11:33:53.903Z,13.40
2017-10-19T11:36:22.231Z,13.50
2017-10-19T11:38:52.070Z,13.90
2017-10-19T11:41:21.127Z,14.10
2017-10-19T11:43:49.419Z,14.10
2017-10-19T11:46:17.751Z,14.40
2017-10-19T11:48:46.817Z,14.50
2017-10-19T11:51:15.159Z,14.50
2017-10-19T11:53:44.214Z,14.70
2017-10-19T11:56:12.518Z,15.00
2017-10-19T11:58:40.834Z,14.90
2017-10-19T12:01:10.633Z,15.00
2017-10-19T12:03:38.982Z,15.00
2017-10-19T12:06:07.279Z,15.00
2017-10-19T12:08:35.565Z,14.90
2017-10-19T12:11:03.899Z,15.00
2017-10-19T12:13:32.189Z,15.00
2017-10-19T12:16:00.511Z,14.90
2017-10-19T12:18:29.567Z,14.70
2017-10-19T12:20:57.907Z,14.60
2017-10-19T12:23:26.975Z,14.60
2017-10-19T12:25:55.298Z,14.60
2017-10-19T12:28:24.377Z,14.70
2017-10-19T12:30:52.703Z,14.70
2017-10-19T12:33:21.760Z,14.80
2017-10-19T12:35:50.087Z,14.70
2017-10-19T12:38:19.891Z,15.20
2017-10-19T12:40:48.220Z,15.20
2017-10-19T12:43:17.278Z,15.40
2017-10-19T12:45:45.602Z,15.40
2017-10-19T12:48:14.679Z,15.60
2017-10-19T12:50:43.016Z,15.60
2017-10-19T12:53:12.077Z,15.60
2017-10-19T12:55:40.367Z,15.50
2017-10-19T12:58:08.699Z,15.50
2017-10-19T13:00:37.791Z,15.50
2017-10-19T13:03:06.857Z,15.60
2017-10-19T13:05:35.192Z,15.60
2017-10-19T13:08:04.255Z,15.50
2017-10-19T13:10:32.730Z,15.50
2017-10-19T13:13:01.063Z,15.50
2017-10-19T13:15:29.363Z,15.60
2017-10-19T13:17:58.458Z,15.70
2017-10-19T13:20:26.780Z,15.70
2017-10-19T13:22:55.838Z,15.80
2017-10-19T13:25:24.159Z,15.80
2017-10-19T13:27:53.276Z,15.90
2017-10-19T13:30:22.335Z,15.80
2017-10-19T13:32:50.629Z,15.80
2017-10-19T13:35:18.979Z,15.80
2017-10-19T13:37:48.029Z,15.70
2017-10-19T13:40:16.351Z,15.70
2017-10-19T13:42:46.161Z,15.60
2017-10-19T13:45:14.475Z,15.60
2017-10-19T13:47:43.570Z,15.60
2017-10-19T13:50:13.398Z,15.70
2017-10-19T13:52:43.195Z,15.60
2017-10-19T13:55:11.530Z,15.60
2017-10-19T13:57:40.590Z,15.70
2017-10-19T14:00:08.895Z,15.70
2017-10-19T14:02:37.214Z,15.80
2017-10-19T14:05:06.274Z,15.80
2017-10-19T14:07:34.600Z,15.80
2017-10-19T14:10:02.900Z,15.80
2017-10-19T14:12:31.997Z,15.80
2017-10-19T14:15:00.331Z,15.80
2017-10-19T14:17:28.691Z,15.70
2017-10-19T14:19:57.753Z,15.70
2017-10-19T14:22:26.058Z,15.70
2017-10-19T14:24:54.412Z,15.80
2017-10-19T14:27:22.713Z,15.70
2017-10-19T14:29:51.012Z,15.60
2017-10-19T14:32:19.335Z,15.70
2017-10-19T14:34:48.440Z,15.60
2017-10-19T14:37:18.254Z,15.70
2017-10-19T14:39:46.600Z,15.70
2017-10-19T14:42:14.902Z,15.60
2017-10-19T14:44:43.202Z,15.60
2017-10-19T14:47:11.526Z,15.50
2017-10-19T14:49:40.636Z,15.50
2017-10-19T14:52:10.456Z,15.60
2017-10-19T14:54:40.291Z,15.50
2017-10-19T14:57:10.095Z,15.50
2017-10-19T14:59:38.406Z,15.50
2017-10-19T15:02:07.510Z,15.50
2017-10-19T15:04:37.302Z,15.50
2017-10-19T15:07:06.014Z,15.50
2017-10-19T15:09:35.106Z,15.30
2017-10-19T15:12:03.435Z,15.30
2017-10-19T15:14:32.547Z,15.20
2017-10-19T15:17:01.611Z,15.20
2017-10-19T15:19:29.943Z,15.20
2017-10-19T15:21:59.068Z,15.10
2017-10-19T15:24:28.138Z,15.10
2017-10-19T15:26:56.505Z,15.10
2017-10-19T15:29:24.809Z,15.10
2017-10-19T15:31:53.143Z,15.00
2017-10-19T15:34:22.194Z,14.70
2017-10-19T15:36:50.539Z,14.70
2017-10-19T15:39:19.592Z,14.60
2017-10-19T15:41:48.195Z,14.50
2017-10-19T15:44:16.549Z,14.50
2017-10-19T15:46:44.852Z,14.40
2017-10-19T15:49:13.167Z,14.50
2017-10-19T15:51:41.644Z,14.50
2017-10-19T15:54:10.046Z,14.50
2017-10-19T15:56:38.370Z,14.50
2017-10-19T15:59:07.450Z,14.40
2017-10-19T16:01:35.737Z,14.40
2017-10-19T16:04:04.054Z,14.40
2017-10-19T16:06:33.300Z,14.10
2017-10-19T16:09:01.595Z,14.10
2017-10-19T16:11:31.787Z,14.10
2017-10-19T16:14:00.083Z,14.00
2017-10-19T16:16:28.523Z,13.90
2017-10-19T16:18:56.888Z,13.80
2017-10-19T16:21:25.179Z,13.70
2017-10-19T16:23:53.503Z,13.60
2017-10-19T16:26:21.831Z,13.50
2017-10-19T16:28:50.129Z,13.40
2017-10-19T16:31:19.223Z,13.10
2017-10-19T16:33:47.518Z,13.10
2017-10-19T16:36:15.851Z,13.10
2017-10-19T16:38:44.582Z,13.10
2017-10-19T16:41:12.964Z,12.90
2017-10-19T16:43:41.294Z,12.70
2017-10-19T16:46:10.395Z,12.60
2017-10-19T16:48:38.691Z,12.60
2017-10-19T16:51:07.793Z,12.60
2017-10-19T16:53:36.690Z,12.70
2017-10-19T16:56:05.027Z,12.60
2017-10-19T16:58:33.362Z,12.30
2017-10-19T17:01:01.983Z,12.20
2017-10-19T17:03:30.387Z,12.20
2017-10-19T17:05:58.702Z,12.20
2017-10-19T17:08:27.042Z,12.20
2017-10-19T17:10:55.349Z,12.20
2017-10-19T17:13:24.440Z,12.00
2017-10-19T17:15:53.532Z,12.00
2017-10-19T17:18:21.875Z,12.00
2017-10-19T17:20:50.179Z,12.00
2017-10-19T17:23:18.520Z,11.90
2017-10-19T17:28:17.743Z,11.80
2017-10-19T17:30:46.153Z,11.70
2017-10-19T17:33:14.860Z,11.60
2017-10-19T17:35:44.407Z,11.60
2017-10-19T17:38:12.745Z,11.60
2017-10-19T17:40:41.051Z,11.50
2017-10-19T17:43:10.159Z,11.50
2017-10-19T17:45:39.232Z,11.40
2017-10-19T17:48:07.567Z,11.40
2017-10-19T17:50:36.683Z,11.40
2017-10-19T17:53:05.780Z,11.40
2017-10-19T17:55:34.887Z,11.30
2017-10-19T17:58:03.956Z,11.30
2017-10-19T18:00:32.264Z,11.30
2017-10-19T18:03:02.116Z,11.20
2017-10-19T18:05:31.218Z,11.30
2017-10-19T18:07:59.570Z,11.20
2017-10-19T18:10:27.881Z,11.30
2017-10-19T18:12:57.707Z,11.20
2017-10-19T18:15:26.043Z,11.20
2017-10-19T18:17:54.345Z,11.20
2017-10-19T18:20:23.619Z,11.10
2017-10-19T18:22:52.674Z,11.10
2017-10-19T18:25:21.709Z,11.10
2017-10-19T18:27:51.517Z,11.00
2017-10-19T18:30:19.848Z,11.00
2017-10-19T18:32:48.955Z,10.90
2017-10-19T18:35:18.055Z,11.00
2017-10-19T18:37:47.137Z,11.10
2017-10-19T18:40:15.459Z,11.10
2017-10-19T18:42:44.575Z,11.00
2017-10-19T18:45:13.666Z,11.00
2017-10-19T18:47:42.771Z,11.00
2017-10-19T18:50:11.875Z,11.00
2017-10-19T18:52:40.187Z,10.90
2017-10-19T18:55:09.284Z,11.00
2017-10-19T18:57:38.359Z,11.00
2017-10-19T19:00:06.687Z,10.90
2017-10-19T19:02:35.792Z,11.00
2017-10-19T19:05:04.876Z,11.00
2017-10-19T19:07:33.232Z,10.90
2017-10-19T19:10:01.658Z,10.90
2017-10-19T19:12:31.505Z,10.70
2017-10-19T19:15:00.609Z,10.70
2017-10-19T19:17:29.697Z,10.80
2017-10-19T19:19:58.019Z,10.70
2017-10-19T19:22:27.220Z,10.90
2017-10-19T19:24:56.332Z,10.70
2017-10-19T19:27:25.398Z,10.70
2017-10-19T19:29:53.765Z,10.70
2017-10-19T19:32:22.109Z,10.80
2017-10-19T19:34:51.302Z,10.80
2017-10-19T19:37:20.365Z,10.70
2017-10-19T19:39:48.714Z,10.80
2017-10-19T19:42:17.929Z,10.70
2017-10-19T19:44:47.027Z,10.80
2017-10-19T19:47:16.836Z,10.90
2017-10-19T19:49:45.195Z,10.90
2017-10-19T19:52:13.540Z,10.90
2017-10-19T19:54:41.878Z,11.00
2017-10-19T19:57:10.214Z,11.00
2017-10-19T19:59:38.534Z,11.00
2017-10-19T20:02:07.640Z,11.00
2017-10-19T20:04:36.704Z,11.00
2017-10-19T20:07:05.051Z,11.00
2017-10-19T20:09:33.412Z,11.00
2017-10-19T20:12:01.738Z,11.00
2017-10-19T20:14:30.060Z,11.10
2017-10-19T20:16:58.399Z,11.10
2017-10-19T20:19:27.458Z,11.20
2017-10-19T20:21:56.102Z,11.20
2017-10-19T20:24:25.219Z,11.30
2017-10-19T20:26:57.155Z,11.30
2017-10-19T20:29:25.496Z,11.30
2017-10-19T20:31:53.849Z,11.30
2017-10-19T20:34:22.150Z,11.30
2017-10-19T20:36:51.263Z,11.30
2017-10-19T20:39:20.357Z,11.40
2017-10-19T20:41:48.710Z,11.40
2017-10-19T20:44:17.040Z,11.50
2017-10-19T20:46:45.354Z,11.50
2017-10-19T20:49:13.706Z,11.30
2017-10-19T20:51:42.010Z,11.20
2017-10-19T20:54:10.356Z,11.30
2017-10-19T20:56:38.683Z,11.40
2017-10-19T20:59:06.989Z,11.40
2017-10-19T21:01:35.324Z,11.30
2017-10-19T21:04:03.625Z,11.30
2017-10-19T21:06:31.945Z,11.40
2017-10-19T21:09:00.296Z,11.50
2017-10-19T21:11:28.639Z,11.40
2017-10-19T21:13:57.714Z,11.50
2017-10-19T21:16:26.096Z,11.50
2017-10-19T21:18:54.391Z,11.50
2017-10-19T21:21:22.701Z,11.50
2017-10-19T21:23:51.062Z,11.40
2017-10-19T21:26:19.354Z,11.40
2017-10-19T21:28:47.699Z,11.40
2017-10-19T21:31:16.771Z,11.40
2017-10-19T21:33:45.104Z,11.40
2017-10-19T21:36:13.455Z,11.40
2017-10-19T21:38:41.768Z,11.40
2017-10-19T21:41:10.871Z,11.30
2017-10-19T21:43:39.959Z,11.40
2017-10-19T21:46:08.286Z,11.30
2017-10-19T21:48:37.360Z,11.40
2017-10-19T21:51:05.717Z,11.40
2017-10-19T21:53:34.020Z,11.40
2017-10-19T21:56:02.328Z,11.40
2017-10-19T21:58:30.678Z,11.30
2017-10-19T22:00:59.029Z,11.10
2017-10-19T22:03:28.095Z,11.10
2017-10-19T22:05:56.429Z,11.10
2017-10-19T22:08:25.536Z,11.20
2017-10-19T22:10:54.599Z,11.30
2017-10-19T22:13:22.926Z,11.20
2017-10-19T22:15:51.998Z,11.20
2017-10-19T22:18:20.344Z,11.20
2017-10-19T22:20:48.647Z,11.20
2017-10-19T22:23:16.972Z,11.10
2017-10-19T22:25:45.305Z,11.10
2017-10-19T22:28:14.371Z,11.00
2017-10-19T22:30:42.675Z,11.00
2017-10-19T22:33:11.023Z,10.90
2017-10-19T22:35:39.355Z,11.00
2017-10-19T22:38:07.687Z,10.90
2017-10-19T22:40:35.987Z,10.90
2017-10-19T22:43:04.327Z,10.80
2017-10-19T22:45:32.638Z,10.80
2017-10-19T22:48:01.703Z,10.70
2017-10-19T22:50:30.043Z,10.70
2017-10-19T22:52:58.387Z,10.70
2017-10-19T22:55:26.719Z,10.70
2017-10-19T22:57:55.783Z,10.80
2017-10-19T23:00:24.128Z,10.80
2017-10-19T23:02:52.426Z,10.70
2017-10-19T23:05:20.727Z,10.70
2017-10-19T23:07:49.063Z,10.70
2017-10-19T23:10:17.376Z,10.70
2017-10-19T23:12:46.487Z,10.60
2017-10-19T23:15:15.552Z,10.60
2017-10-19T23:17:43.870Z,10.50
2017-10-19T23:20:12.975Z,10.40
2017-10-19T23:22:42.081Z,10.20
2017-10-19T23:25:10.376Z,10.20
2017-10-19T23:27:39.470Z,10.20
2017-10-19T23:30:08.162Z,10.20
2017-10-19T23:32:36.468Z,10.30
2017-10-19T23:35:04.781Z,10.30
2017-10-19T23:37:33.871Z,10.20
2017-10-19T23:40:02.938Z,10.20
2017-10-19T23:42:31.288Z,10.20
2017-10-19T23:44:59.585Z,10.20
2017-10-19T23:47:27.892Z,10.20
2017-10-19T23:49:56.260Z,10.20
2017-10-19T23:52:24.568Z,10.20
2017-10-19T23:54:52.872Z,10.20
2017-10-19T23:57:21.211Z,10.10
2017-10-19T23:59:50.282Z,10.10
